sensor_id;sensor_type;location;lat;lon;timestamp;P1;durP1;ratioP1;P2;durP2;ratioP2
6973;SDS011;3527;52.376;8.990;2022-07-29T00:00:44;5.40;;;1.60;;
6973;SDS011;3527;52.376;8.990;2022-07-29T00:03:31;5.27;;;1.80;;
6973;SDS011;3527;52.376;8.990;2022-07-29T00:06:19;3.17;;;1.50;;
6973;SDS011;3527;52.376;8.990;2022-07-29T00:09:07;3.20;;;1.70;;
6973;SDS011;3527;52.376;8.990;2022-07-29T00:11:55;6.53;;;1.60;;
6973;SDS011;3527;52.376;8.990;2022-07-29T00:14:44;3.43;;;1.33;;
6973;SDS011;3527;52.376;8.990;2022-07-29T00:17:33;3.43;;;1.63;;
6973;SDS011;3527;52.376;8.990;2022-07-29T00:20:20;4.80;;;1.53;;
6973;SDS011;3527;52.376;8.990;2022-07-29T00:23:07;2.77;;;1.40;;
6973;SDS011;3527;52.376;8.990;2022-07-29T00:25:59;3.33;;;1.60;;
6973;SDS011;3527;52.376;8.990;2022-07-29T00:28:46;4.67;;;1.63;;
6973;SDS011;3527;52.376;8.990;2022-07-29T00:31:33;3.73;;;1.50;;
6973;SDS011;3527;52.376;8.990;2022-07-29T00:34:20;4.97;;;1.63;;
6973;SDS011;3527;52.376;8.990;2022-07-29T00:37:25;5.13;;;1.50;;
6973;SDS011;3527;52.376;8.990;2022-07-29T00:40:13;3.90;;;1.70;;
6973;SDS011;3527;52.376;8.990;2022-07-29T00:43:00;2.20;;;1.60;;
6973;SDS011;3527;52.376;8.990;2022-07-29T00:45:48;4.37;;;1.60;;
6973;SDS011;3527;52.376;8.990;2022-07-29T00:48:35;5.77;;;1.67;;
6973;SDS011;3527;52.376;8.990;2022-07-29T00:51:22;4.63;;;1.33;;
6973;SDS011;3527;52.376;8.990;2022-07-29T00:54:12;4.50;;;1.60;;
6973;SDS011;3527;52.376;8.990;2022-07-29T00:57:00;3.77;;;1.50;;
6973;SDS011;3527;52.376;8.990;2022-07-29T00:59:47;3.17;;;1.50;;
6973;SDS011;3527;52.376;8.990;2022-07-29T01:02:34;2.33;;;1.30;;
6973;SDS011;3527;52.376;8.990;2022-07-29T01:05:23;3.10;;;1.50;;
6973;SDS011;3527;52.376;8.990;2022-07-29T01:08:32;2.47;;;1.57;;
6973;SDS011;3527;52.376;8.990;2022-07-29T01:11:19;5.57;;;1.90;;
6973;SDS011;3527;52.376;8.990;2022-07-29T01:14:07;4.10;;;1.50;;
6973;SDS011;3527;52.376;8.990;2022-07-29T01:17:02;3.20;;;1.63;;
6973;SDS011;3527;52.376;8.990;2022-07-29T01:20:18;3.60;;;1.43;;
6973;SDS011;3527;52.376;8.990;2022-07-29T01:26:41;3.87;;;1.80;;
6973;SDS011;3527;52.376;8.990;2022-07-29T01:29:41;4.87;;;1.70;;
6973;SDS011;3527;52.376;8.990;2022-07-29T01:32:44;4.83;;;1.67;;
6973;SDS011;3527;52.376;8.990;2022-07-29T01:35:39;3.70;;;1.43;;
6973;SDS011;3527;52.376;8.990;2022-07-29T01:38:28;3.70;;;1.60;;
6973;SDS011;3527;52.376;8.990;2022-07-29T01:41:16;5.83;;;2.17;;
6973;SDS011;3527;52.376;8.990;2022-07-29T01:44:17;2.70;;;1.50;;
6973;SDS011;3527;52.376;8.990;2022-07-29T01:47:10;3.13;;;1.50;;
6973;SDS011;3527;52.376;8.990;2022-07-29T01:50:03;2.47;;;1.33;;
6973;SDS011;3527;52.376;8.990;2022-07-29T01:52:58;4.43;;;1.60;;
6973;SDS011;3527;52.376;8.990;2022-07-29T01:55:47;2.63;;;1.43;;
6973;SDS011;3527;52.376;8.990;2022-07-29T01:58:36;4.20;;;1.63;;
6973;SDS011;3527;52.376;8.990;2022-07-29T02:01:28;3.37;;;1.67;;
6973;SDS011;3527;52.376;8.990;2022-07-29T02:04:17;3.73;;;1.50;;
6973;SDS011;3527;52.376;8.990;2022-07-29T02:07:16;3.27;;;1.50;;
6973;SDS011;3527;52.376;8.990;2022-07-29T02:10:06;3.40;;;1.50;;
6973;SDS011;3527;52.376;8.990;2022-07-29T02:12:56;3.40;;;1.47;;
6973;SDS011;3527;52.376;8.990;2022-07-29T02:15:44;5.37;;;1.60;;
6973;SDS011;3527;52.376;8.990;2022-07-29T02:18:32;3.73;;;1.60;;
6973;SDS011;3527;52.376;8.990;2022-07-29T02:21:24;3.83;;;1.63;;
6973;SDS011;3527;52.376;8.990;2022-07-29T02:24:13;7.70;;;2.07;;
6973;SDS011;3527;52.376;8.990;2022-07-29T02:27:03;5.23;;;1.70;;
6973;SDS011;3527;52.376;8.990;2022-07-29T02:29:50;5.57;;;1.77;;
6973;SDS011;3527;52.376;8.990;2022-07-29T02:32:39;3.53;;;1.47;;
6973;SDS011;3527;52.376;8.990;2022-07-29T02:35:28;5.50;;;1.60;;
6973;SDS011;3527;52.376;8.990;2022-07-29T02:38:20;3.83;;;1.60;;
6973;SDS011;3527;52.376;8.990;2022-07-29T02:41:28;4.13;;;1.40;;
6973;SDS011;3527;52.376;8.990;2022-07-29T02:44:18;4.77;;;1.40;;
6973;SDS011;3527;52.376;8.990;2022-07-29T02:47:12;4.03;;;1.57;;
6973;SDS011;3527;52.376;8.990;2022-07-29T02:50:06;3.70;;;1.70;;
6973;SDS011;3527;52.376;8.990;2022-07-29T02:59:00;3.97;;;1.70;;
6973;SDS011;3527;52.376;8.990;2022-07-29T03:01:49;3.07;;;1.40;;
6973;SDS011;3527;52.376;8.990;2022-07-29T03:04:38;2.53;;;1.77;;
6973;SDS011;3527;52.376;8.990;2022-07-29T03:07:28;3.07;;;1.43;;
6973;SDS011;3527;52.376;8.990;2022-07-29T03:10:16;4.20;;;1.63;;
6973;SDS011;3527;52.376;8.990;2022-07-29T03:13:05;3.33;;;1.67;;
6973;SDS011;3527;52.376;8.990;2022-07-29T03:15:54;3.60;;;1.67;;
6973;SDS011;3527;52.376;8.990;2022-07-29T03:18:42;2.93;;;1.47;;
6973;SDS011;3527;52.376;8.990;2022-07-29T03:21:29;8.97;;;1.83;;
6973;SDS011;3527;52.376;8.990;2022-07-29T03:24:24;4.00;;;1.60;;
6973;SDS011;3527;52.376;8.990;2022-07-29T03:27:12;4.73;;;1.50;;
6973;SDS011;3527;52.376;8.990;2022-07-29T03:29:59;4.23;;;1.60;;
6973;SDS011;3527;52.376;8.990;2022-07-29T03:32:46;4.10;;;1.90;;
6973;SDS011;3527;52.376;8.990;2022-07-29T03:35:33;2.63;;;1.50;;
6973;SDS011;3527;52.376;8.990;2022-07-29T03:38:20;4.37;;;1.60;;
6973;SDS011;3527;52.376;8.990;2022-07-29T03:41:12;3.13;;;1.70;;
6973;SDS011;3527;52.376;8.990;2022-07-29T03:44:01;4.93;;;1.87;;
6973;SDS011;3527;52.376;8.990;2022-07-29T03:46:49;5.97;;;1.90;;
6973;SDS011;3527;52.376;8.990;2022-07-29T03:49:38;3.17;;;1.50;;
6973;SDS011;3527;52.376;8.990;2022-07-29T03:52:27;2.90;;;1.70;;
6973;SDS011;3527;52.376;8.990;2022-07-29T03:55:14;5.40;;;1.60;;
6973;SDS011;3527;52.376;8.990;2022-07-29T03:58:02;5.10;;;1.90;;
6973;SDS011;3527;52.376;8.990;2022-07-29T04:00:50;6.40;;;2.00;;
6973;SDS011;3527;52.376;8.990;2022-07-29T04:03:37;3.37;;;1.70;;
6973;SDS011;3527;52.376;8.990;2022-07-29T04:06:25;4.63;;;2.00;;
6973;SDS011;3527;52.376;8.990;2022-07-29T04:09:12;4.43;;;1.90;;
6973;SDS011;3527;52.376;8.990;2022-07-29T04:11:59;7.07;;;1.70;;
6973;SDS011;3527;52.376;8.990;2022-07-29T04:14:50;2.83;;;1.50;;
6973;SDS011;3527;52.376;8.990;2022-07-29T04:17:37;2.60;;;1.63;;
6973;SDS011;3527;52.376;8.990;2022-07-29T04:20:24;7.83;;;2.00;;
6973;SDS011;3527;52.376;8.990;2022-07-29T04:23:11;4.87;;;2.07;;
6973;SDS011;3527;52.376;8.990;2022-07-29T04:25:58;4.07;;;1.80;;
6973;SDS011;3527;52.376;8.990;2022-07-29T04:28:46;5.67;;;1.57;;
6973;SDS011;3527;52.376;8.990;2022-07-29T04:31:33;4.60;;;2.07;;
6973;SDS011;3527;52.376;8.990;2022-07-29T04:34:21;4.20;;;1.80;;
6973;SDS011;3527;52.376;8.990;2022-07-29T04:37:13;3.87;;;1.83;;
6973;SDS011;3527;52.376;8.990;2022-07-29T04:40:00;6.57;;;2.00;;
6973;SDS011;3527;52.376;8.990;2022-07-29T04:42:47;3.30;;;1.90;;
6973;SDS011;3527;52.376;8.990;2022-07-29T04:45:35;5.13;;;1.70;;
6973;SDS011;3527;52.376;8.990;2022-07-29T04:48:22;4.67;;;1.80;;
6973;SDS011;3527;52.376;8.990;2022-07-29T04:51:14;2.73;;;1.70;;
6973;SDS011;3527;52.376;8.990;2022-07-29T04:54:02;6.77;;;1.70;;
6973;SDS011;3527;52.376;8.990;2022-07-29T04:56:49;4.57;;;1.57;;
6973;SDS011;3527;52.376;8.990;2022-07-29T04:59:36;2.07;;;1.50;;
6973;SDS011;3527;52.376;8.990;2022-07-29T05:02:23;4.67;;;1.50;;
6973;SDS011;3527;52.376;8.990;2022-07-29T05:05:10;4.00;;;1.60;;
6973;SDS011;3527;52.376;8.990;2022-07-29T05:08:00;4.17;;;1.70;;
6973;SDS011;3527;52.376;8.990;2022-07-29T05:10:47;2.47;;;1.60;;
6973;SDS011;3527;52.376;8.990;2022-07-29T05:13:34;5.37;;;1.90;;
6973;SDS011;3527;52.376;8.990;2022-07-29T05:16:32;3.17;;;1.57;;
6973;SDS011;3527;52.376;8.990;2022-07-29T05:19:20;5.43;;;2.00;;
6973;SDS011;3527;52.376;8.990;2022-07-29T05:22:06;4.93;;;1.80;;
6973;SDS011;3527;52.376;8.990;2022-07-29T05:24:53;2.67;;;1.60;;
6973;SDS011;3527;52.376;8.990;2022-07-29T05:27:40;4.53;;;1.90;;
6973;SDS011;3527;52.376;8.990;2022-07-29T05:30:27;6.10;;;1.93;;
6973;SDS011;3527;52.376;8.990;2022-07-29T05:33:14;4.43;;;1.60;;
6973;SDS011;3527;52.376;8.990;2022-07-29T05:36:22;5.20;;;1.80;;
6973;SDS011;3527;52.376;8.990;2022-07-29T05:39:09;4.90;;;1.80;;
6973;SDS011;3527;52.376;8.990;2022-07-29T05:41:56;7.00;;;1.90;;
6973;SDS011;3527;52.376;8.990;2022-07-29T05:44:43;7.20;;;1.97;;
6973;SDS011;3527;52.376;8.990;2022-07-29T05:47:30;2.97;;;1.80;;
6973;SDS011;3527;52.376;8.990;2022-07-29T05:50:17;3.30;;;1.83;;
6973;SDS011;3527;52.376;8.990;2022-07-29T05:53:04;6.23;;;2.00;;
6973;SDS011;3527;52.376;8.990;2022-07-29T05:56:05;4.30;;;2.30;;
6973;SDS011;3527;52.376;8.990;2022-07-29T05:58:53;6.67;;;2.10;;
6973;SDS011;3527;52.376;8.990;2022-07-29T06:01:40;3.70;;;1.80;;
6973;SDS011;3527;52.376;8.990;2022-07-29T06:04:28;3.03;;;1.87;;
6973;SDS011;3527;52.376;8.990;2022-07-29T06:07:15;9.20;;;1.90;;
6973;SDS011;3527;52.376;8.990;2022-07-29T06:10:03;6.50;;;2.10;;
6973;SDS011;3527;52.376;8.990;2022-07-29T06:12:50;5.33;;;1.73;;
6973;SDS011;3527;52.376;8.990;2022-07-29T06:15:37;4.40;;;2.07;;
6973;SDS011;3527;52.376;8.990;2022-07-29T06:18:24;3.17;;;1.87;;
6973;SDS011;3527;52.376;8.990;2022-07-29T06:21:11;5.03;;;2.10;;
6973;SDS011;3527;52.376;8.990;2022-07-29T06:23:58;5.23;;;1.80;;
6973;SDS011;3527;52.376;8.990;2022-07-29T06:26:46;4.60;;;1.53;;
6973;SDS011;3527;52.376;8.990;2022-07-29T06:29:33;7.70;;;2.00;;
6973;SDS011;3527;52.376;8.990;2022-07-29T06:32:20;11.57;;;2.33;;
6973;SDS011;3527;52.376;8.990;2022-07-29T06:35:12;7.17;;;1.80;;
6973;SDS011;3527;52.376;8.990;2022-07-29T06:38:19;2.97;;;1.70;;
6973;SDS011;3527;52.376;8.990;2022-07-29T06:41:17;5.70;;;1.90;;
6973;SDS011;3527;52.376;8.990;2022-07-29T06:44:04;3.67;;;2.00;;
6973;SDS011;3527;52.376;8.990;2022-07-29T06:46:51;4.37;;;1.87;;
6973;SDS011;3527;52.376;8.990;2022-07-29T06:49:39;4.30;;;1.63;;
6973;SDS011;3527;52.376;8.990;2022-07-29T06:52:26;3.67;;;2.07;;
6973;SDS011;3527;52.376;8.990;2022-07-29T06:55:13;5.00;;;2.00;;
6973;SDS011;3527;52.376;8.990;2022-07-29T06:58:10;5.13;;;1.93;;
6973;SDS011;3527;52.376;8.990;2022-07-29T07:01:00;5.37;;;1.90;;
6973;SDS011;3527;52.376;8.990;2022-07-29T07:03:48;3.73;;;1.90;;
6973;SDS011;3527;52.376;8.990;2022-07-29T07:06:35;3.47;;;1.93;;
6973;SDS011;3527;52.376;8.990;2022-07-29T07:09:23;4.40;;;1.77;;
6973;SDS011;3527;52.376;8.990;2022-07-29T07:12:25;5.63;;;2.20;;
6973;SDS011;3527;52.376;8.990;2022-07-29T07:15:12;6.40;;;2.27;;
6973;SDS011;3527;52.376;8.990;2022-07-29T07:17:59;3.97;;;1.93;;
6973;SDS011;3527;52.376;8.990;2022-07-29T07:20:46;5.43;;;1.90;;
6973;SDS011;3527;52.376;8.990;2022-07-29T07:23:34;4.60;;;2.13;;
6973;SDS011;3527;52.376;8.990;2022-07-29T07:26:21;3.97;;;2.10;;
6973;SDS011;3527;52.376;8.990;2022-07-29T07:29:08;3.37;;;1.80;;
6973;SDS011;3527;52.376;8.990;2022-07-29T07:31:55;7.23;;;2.23;;
6973;SDS011;3527;52.376;8.990;2022-07-29T07:34:46;5.90;;;2.23;;
6973;SDS011;3527;52.376;8.990;2022-07-29T07:37:33;5.80;;;2.10;;
6973;SDS011;3527;52.376;8.990;2022-07-29T07:40:21;5.83;;;2.20;;
6973;SDS011;3527;52.376;8.990;2022-07-29T07:43:08;7.43;;;2.40;;
6973;SDS011;3527;52.376;8.990;2022-07-29T07:45:55;4.87;;;1.90;;
6973;SDS011;3527;52.376;8.990;2022-07-29T07:48:42;5.77;;;2.10;;
6973;SDS011;3527;52.376;8.990;2022-07-29T07:51:29;3.70;;;2.00;;
6973;SDS011;3527;52.376;8.990;2022-07-29T07:54:16;6.23;;;2.37;;
6973;SDS011;3527;52.376;8.990;2022-07-29T07:57:06;5.77;;;1.97;;
6973;SDS011;3527;52.376;8.990;2022-07-29T07:59:53;4.03;;;2.20;;
6973;SDS011;3527;52.376;8.990;2022-07-29T08:02:40;5.13;;;2.13;;
6973;SDS011;3527;52.376;8.990;2022-07-29T08:05:29;4.57;;;2.27;;
6973;SDS011;3527;52.376;8.990;2022-07-29T08:08:17;4.63;;;2.03;;
6973;SDS011;3527;52.376;8.990;2022-07-29T08:11:04;7.03;;;2.40;;
6973;SDS011;3527;52.376;8.990;2022-07-29T08:13:55;5.20;;;2.07;;
6973;SDS011;3527;52.376;8.990;2022-07-29T08:16:42;5.57;;;2.00;;
6973;SDS011;3527;52.376;8.990;2022-07-29T08:19:29;4.37;;;2.27;;
6973;SDS011;3527;52.376;8.990;2022-07-29T08:22:16;3.80;;;2.07;;
6973;SDS011;3527;52.376;8.990;2022-07-29T08:25:04;4.83;;;2.17;;
6973;SDS011;3527;52.376;8.990;2022-07-29T08:27:51;3.97;;;2.27;;
6973;SDS011;3527;52.376;8.990;2022-07-29T08:30:38;10.57;;;2.63;;
6973;SDS011;3527;52.376;8.990;2022-07-29T08:33:25;6.73;;;2.67;;
6973;SDS011;3527;52.376;8.990;2022-07-29T08:36:12;4.53;;;2.10;;
6973;SDS011;3527;52.376;8.990;2022-07-29T08:39:00;5.27;;;2.07;;
6973;SDS011;3527;52.376;8.990;2022-07-29T08:41:48;3.97;;;2.43;;
6973;SDS011;3527;52.376;8.990;2022-07-29T08:44:43;8.40;;;2.30;;
6973;SDS011;3527;52.376;8.990;2022-07-29T08:47:30;6.07;;;2.23;;
6973;SDS011;3527;52.376;8.990;2022-07-29T08:50:17;6.67;;;2.20;;
6973;SDS011;3527;52.376;8.990;2022-07-29T08:53:04;10.50;;;2.57;;
6973;SDS011;3527;52.376;8.990;2022-07-29T08:55:54;8.37;;;2.63;;
6973;SDS011;3527;52.376;8.990;2022-07-29T08:58:42;3.80;;;2.10;;
6973;SDS011;3527;52.376;8.990;2022-07-29T09:01:37;3.57;;;2.27;;
6973;SDS011;3527;52.376;8.990;2022-07-29T09:04:30;5.80;;;2.17;;
6973;SDS011;3527;52.376;8.990;2022-07-29T09:07:20;5.67;;;2.27;;
6973;SDS011;3527;52.376;8.990;2022-07-29T09:10:08;3.83;;;2.07;;
6973;SDS011;3527;52.376;8.990;2022-07-29T09:12:55;5.73;;;2.77;;
6973;SDS011;3527;52.376;8.990;2022-07-29T09:15:42;6.40;;;2.40;;
6973;SDS011;3527;52.376;8.990;2022-07-29T09:18:40;5.93;;;2.27;;
6973;SDS011;3527;52.376;8.990;2022-07-29T09:21:29;5.10;;;2.17;;
6973;SDS011;3527;52.376;8.990;2022-07-29T09:24:46;9.80;;;2.60;;
6973;SDS011;3527;52.376;8.990;2022-07-29T09:27:34;6.88;;;2.67;;
6973;SDS011;3527;52.376;8.990;2022-07-29T09:30:21;5.10;;;2.43;;
6973;SDS011;3527;52.376;8.990;2022-07-29T09:33:17;4.50;;;2.30;;
6973;SDS011;3527;52.376;8.990;2022-07-29T09:36:05;4.87;;;2.23;;
6973;SDS011;3527;52.376;8.990;2022-07-29T09:38:57;9.37;;;2.77;;
6973;SDS011;3527;52.376;8.990;2022-07-29T09:41:48;4.00;;;2.27;;
6973;SDS011;3527;52.376;8.990;2022-07-29T09:44:46;5.53;;;1.90;;
6973;SDS011;3527;52.376;8.990;2022-07-29T09:50:37;5.75;;;2.45;;
6973;SDS011;3527;52.376;8.990;2022-07-29T09:53:32;4.60;;;2.15;;
6973;SDS011;3527;52.376;8.990;2022-07-29T09:56:40;5.35;;;2.08;;
6973;SDS011;3527;52.376;8.990;2022-07-29T09:59:27;9.68;;;2.63;;
6973;SDS011;3527;52.376;8.990;2022-07-29T10:02:14;7.47;;;2.47;;
6973;SDS011;3527;52.376;8.990;2022-07-29T10:05:19;6.13;;;2.53;;
6973;SDS011;3527;52.376;8.990;2022-07-29T10:08:25;5.65;;;2.40;;
6973;SDS011;3527;52.376;8.990;2022-07-29T10:11:14;4.80;;;2.50;;
6973;SDS011;3527;52.376;8.990;2022-07-29T10:14:04;8.48;;;2.80;;
6973;SDS011;3527;52.376;8.990;2022-07-29T10:16:52;4.20;;;2.35;;
6973;SDS011;3527;52.376;8.990;2022-07-29T10:19:40;2.92;;;2.40;;
6973;SDS011;3527;52.376;8.990;2022-07-29T10:22:28;4.55;;;2.05;;
6973;SDS011;3527;52.376;8.990;2022-07-29T10:25:36;6.30;;;2.55;;
6973;SDS011;3527;52.376;8.990;2022-07-29T10:28:23;4.93;;;2.30;;
6973;SDS011;3527;52.376;8.990;2022-07-29T10:31:18;7.05;;;2.67;;
6973;SDS011;3527;52.376;8.990;2022-07-29T10:41:02;6.47;;;2.33;;
6973;SDS011;3527;52.376;8.990;2022-07-29T10:44:18;7.47;;;2.83;;
6973;SDS011;3527;52.376;8.990;2022-07-29T10:50:09;7.60;;;2.30;;
6973;SDS011;3527;52.376;8.990;2022-07-29T10:53:02;4.40;;;2.30;;
6973;SDS011;3527;52.376;8.990;2022-07-29T10:55:54;5.78;;;1.98;;
6973;SDS011;3527;52.376;8.990;2022-07-29T10:58:42;5.30;;;2.45;;
6973;SDS011;3527;52.376;8.990;2022-07-29T11:01:38;6.90;;;2.30;;
6973;SDS011;3527;52.376;8.990;2022-07-29T11:07:32;8.50;;;2.90;;
6973;SDS011;3527;52.376;8.990;2022-07-29T11:10:31;3.88;;;2.03;;
6973;SDS011;3527;52.376;8.990;2022-07-29T11:13:52;5.07;;;2.20;;
6973;SDS011;3527;52.376;8.990;2022-07-29T11:23:28;7.85;;;2.45;;
6973;SDS011;3527;52.376;8.990;2022-07-29T11:26:20;8.18;;;2.30;;
6973;SDS011;3527;52.376;8.990;2022-07-29T11:29:16;4.53;;;2.58;;
6973;SDS011;3527;52.376;8.990;2022-07-29T11:32:12;4.65;;;2.05;;
6973;SDS011;3527;52.376;8.990;2022-07-29T11:38:25;5.97;;;2.20;;
6973;SDS011;3527;52.376;8.990;2022-07-29T11:41:24;3.83;;;2.30;;
6973;SDS011;3527;52.376;8.990;2022-07-29T11:44:12;9.65;;;2.63;;
6973;SDS011;3527;52.376;8.990;2022-07-29T11:47:03;3.95;;;2.50;;
6973;SDS011;3527;52.376;8.990;2022-07-29T11:49:52;4.45;;;2.33;;
6973;SDS011;3527;52.376;8.990;2022-07-29T11:52:46;6.60;;;2.38;;
6973;SDS011;3527;52.376;8.990;2022-07-29T11:55:35;8.07;;;2.53;;
6973;SDS011;3527;52.376;8.990;2022-07-29T11:58:37;7.00;;;2.55;;
6973;SDS011;3527;52.376;8.990;2022-07-29T12:01:26;7.90;;;2.85;;
6973;SDS011;3527;52.376;8.990;2022-07-29T12:04:13;6.43;;;2.85;;
6973;SDS011;3527;52.376;8.990;2022-07-29T12:07:05;7.75;;;2.55;;
6973;SDS011;3527;52.376;8.990;2022-07-29T12:09:52;5.38;;;2.70;;
6973;SDS011;3527;52.376;8.990;2022-07-29T12:12:42;8.48;;;2.65;;
6973;SDS011;3527;52.376;8.990;2022-07-29T12:15:38;8.45;;;2.88;;
6973;SDS011;3527;52.376;8.990;2022-07-29T12:18:32;5.43;;;2.53;;
6973;SDS011;3527;52.376;8.990;2022-07-29T12:21:19;3.75;;;2.45;;
6973;SDS011;3527;52.376;8.990;2022-07-29T12:24:11;6.13;;;2.70;;
6973;SDS011;3527;52.376;8.990;2022-07-29T12:26:58;7.00;;;3.03;;
6973;SDS011;3527;52.376;8.990;2022-07-29T12:29:56;7.72;;;2.75;;
6973;SDS011;3527;52.376;8.990;2022-07-29T12:32:47;6.90;;;2.55;;
6973;SDS011;3527;52.376;8.990;2022-07-29T12:35:35;6.63;;;2.63;;
6973;SDS011;3527;52.376;8.990;2022-07-29T12:38:22;7.38;;;2.80;;
6973;SDS011;3527;52.376;8.990;2022-07-29T12:41:10;5.43;;;2.90;;
6973;SDS011;3527;52.376;8.990;2022-07-29T12:43:59;6.75;;;2.80;;
6973;SDS011;3527;52.376;8.990;2022-07-29T12:47:00;4.38;;;2.50;;
6973;SDS011;3527;52.376;8.990;2022-07-29T12:49:48;7.20;;;2.42;;
6973;SDS011;3527;52.376;8.990;2022-07-29T12:52:36;6.28;;;2.53;;
6973;SDS011;3527;52.376;8.990;2022-07-29T12:58:36;7.60;;;2.67;;
6973;SDS011;3527;52.376;8.990;2022-07-29T13:01:25;5.47;;;2.92;;
6973;SDS011;3527;52.376;8.990;2022-07-29T13:04:24;6.47;;;3.05;;
6973;SDS011;3527;52.376;8.990;2022-07-29T13:07:13;4.90;;;2.30;;
6973;SDS011;3527;52.376;8.990;2022-07-29T13:10:34;5.85;;;2.78;;
6973;SDS011;3527;52.376;8.990;2022-07-29T13:13:23;5.28;;;2.83;;
6973;SDS011;3527;52.376;8.990;2022-07-29T13:16:10;3.63;;;2.63;;
6973;SDS011;3527;52.376;8.990;2022-07-29T13:19:04;5.15;;;2.90;;
6973;SDS011;3527;52.376;8.990;2022-07-29T13:21:56;5.07;;;2.80;;
6973;SDS011;3527;52.376;8.990;2022-07-29T13:25:05;7.78;;;2.90;;
6973;SDS011;3527;52.376;8.990;2022-07-29T13:27:55;8.18;;;2.90;;
6973;SDS011;3527;52.376;8.990;2022-07-29T13:30:43;3.70;;;2.50;;
6973;SDS011;3527;52.376;8.990;2022-07-29T13:33:30;6.20;;;2.53;;
6973;SDS011;3527;52.376;8.990;2022-07-29T13:36:17;8.48;;;2.80;;
6973;SDS011;3527;52.376;8.990;2022-07-29T13:39:04;14.43;;;2.85;;
6973;SDS011;3527;52.376;8.990;2022-07-29T13:41:51;6.57;;;2.92;;
6973;SDS011;3527;52.376;8.990;2022-07-29T13:44:39;6.20;;;2.63;;
6973;SDS011;3527;52.376;8.990;2022-07-29T13:47:27;6.90;;;2.80;;
6973;SDS011;3527;52.376;8.990;2022-07-29T13:50:18;4.80;;;2.60;;
6973;SDS011;3527;52.376;8.990;2022-07-29T13:53:05;4.85;;;2.55;;
6973;SDS011;3527;52.376;8.990;2022-07-29T13:55:52;4.70;;;2.58;;
6973;SDS011;3527;52.376;8.990;2022-07-29T13:58:40;6.28;;;2.95;;
6973;SDS011;3527;52.376;8.990;2022-07-29T14:01:27;5.05;;;2.80;;
6973;SDS011;3527;52.376;8.990;2022-07-29T14:04:14;6.05;;;3.22;;
6973;SDS011;3527;52.376;8.990;2022-07-29T14:07:02;4.65;;;2.45;;
6973;SDS011;3527;52.376;8.990;2022-07-29T14:09:49;8.75;;;2.88;;
6973;SDS011;3527;52.376;8.990;2022-07-29T14:12:37;6.07;;;2.97;;
6973;SDS011;3527;52.376;8.990;2022-07-29T14:15:24;4.80;;;2.72;;
6973;SDS011;3527;52.376;8.990;2022-07-29T14:18:11;8.32;;;2.70;;
6973;SDS011;3527;52.376;8.990;2022-07-29T14:20:58;5.75;;;2.70;;
6973;SDS011;3527;52.376;8.990;2022-07-29T14:23:45;5.43;;;2.90;;
6973;SDS011;3527;52.376;8.990;2022-07-29T14:26:32;5.75;;;2.88;;
6973;SDS011;3527;52.376;8.990;2022-07-29T14:29:19;6.47;;;2.85;;
6973;SDS011;3527;52.376;8.990;2022-07-29T14:32:07;4.82;;;2.80;;
6973;SDS011;3527;52.376;8.990;2022-07-29T14:34:55;6.75;;;2.90;;
6973;SDS011;3527;52.376;8.990;2022-07-29T14:37:42;7.60;;;2.78;;
6973;SDS011;3527;52.376;8.990;2022-07-29T14:40:30;3.90;;;2.83;;
6973;SDS011;3527;52.376;8.990;2022-07-29T14:43:17;6.35;;;2.78;;
6973;SDS011;3527;52.376;8.990;2022-07-29T14:46:04;4.47;;;2.83;;
6973;SDS011;3527;52.376;8.990;2022-07-29T14:48:54;5.22;;;2.63;;
6973;SDS011;3527;52.376;8.990;2022-07-29T14:51:41;4.90;;;2.85;;
6973;SDS011;3527;52.376;8.990;2022-07-29T14:54:28;6.80;;;3.35;;
6973;SDS011;3527;52.376;8.990;2022-07-29T14:57:15;5.13;;;2.80;;
6973;SDS011;3527;52.376;8.990;2022-07-29T15:00:03;7.00;;;2.67;;
6973;SDS011;3527;52.376;8.990;2022-07-29T15:02:53;7.30;;;2.90;;
6973;SDS011;3527;52.376;8.990;2022-07-29T15:05:48;4.35;;;2.83;;
6973;SDS011;3527;52.376;8.990;2022-07-29T15:08:35;5.63;;;3.17;;
6973;SDS011;3527;52.376;8.990;2022-07-29T15:11:22;9.13;;;3.05;;
6973;SDS011;3527;52.376;8.990;2022-07-29T15:14:09;13.48;;;3.65;;
6973;SDS011;3527;52.376;8.990;2022-07-29T15:16:56;6.75;;;2.70;;
6973;SDS011;3527;52.376;8.990;2022-07-29T15:19:44;6.45;;;2.97;;
6973;SDS011;3527;52.376;8.990;2022-07-29T15:22:31;6.38;;;3.00;;
6973;SDS011;3527;52.376;8.990;2022-07-29T15:25:18;4.80;;;3.30;;
6973;SDS011;3527;52.376;8.990;2022-07-29T15:28:05;7.22;;;3.03;;
6973;SDS011;3527;52.376;8.990;2022-07-29T15:30:54;7.82;;;3.35;;
6973;SDS011;3527;52.376;8.990;2022-07-29T15:33:42;6.00;;;3.00;;
6973;SDS011;3527;52.376;8.990;2022-07-29T15:36:29;5.13;;;2.80;;
6973;SDS011;3527;52.376;8.990;2022-07-29T15:39:36;10.73;;;3.40;;
6973;SDS011;3527;52.376;8.990;2022-07-29T15:42:23;14.57;;;3.30;;
6973;SDS011;3527;52.376;8.990;2022-07-29T15:45:10;5.25;;;3.00;;
6973;SDS011;3527;52.376;8.990;2022-07-29T15:47:58;6.55;;;2.90;;
6973;SDS011;3527;52.376;8.990;2022-07-29T15:50:45;7.85;;;3.10;;
6973;SDS011;3527;52.376;8.990;2022-07-29T15:53:32;6.63;;;3.35;;
6973;SDS011;3527;52.376;8.990;2022-07-29T15:56:21;4.72;;;3.08;;
6973;SDS011;3527;52.376;8.990;2022-07-29T15:59:08;8.30;;;2.95;;
6973;SDS011;3527;52.376;8.990;2022-07-29T16:02:07;6.10;;;3.33;;
6973;SDS011;3527;52.376;8.990;2022-07-29T16:04:55;8.77;;;3.50;;
6973;SDS011;3527;52.376;8.990;2022-07-29T16:07:42;5.20;;;3.03;;
6973;SDS011;3527;52.376;8.990;2022-07-29T16:10:29;5.63;;;3.08;;
6973;SDS011;3527;52.376;8.990;2022-07-29T16:13:16;7.18;;;3.03;;
6973;SDS011;3527;52.376;8.990;2022-07-29T16:16:06;4.65;;;3.13;;
6973;SDS011;3527;52.376;8.990;2022-07-29T16:18:53;8.63;;;3.08;;
6973;SDS011;3527;52.376;8.990;2022-07-29T16:21:41;3.72;;;3.03;;
6973;SDS011;3527;52.376;8.990;2022-07-29T16:24:28;4.72;;;2.72;;
6973;SDS011;3527;52.376;8.990;2022-07-29T16:27:16;5.65;;;3.00;;
6973;SDS011;3527;52.376;8.990;2022-07-29T16:30:04;3.65;;;2.90;;
6973;SDS011;3527;52.376;8.990;2022-07-29T16:32:55;6.55;;;3.20;;
6973;SDS011;3527;52.376;8.990;2022-07-29T16:35:42;6.72;;;3.38;;
6973;SDS011;3527;52.376;8.990;2022-07-29T16:38:29;4.95;;;2.78;;
6973;SDS011;3527;52.376;8.990;2022-07-29T16:41:16;4.68;;;2.90;;
6973;SDS011;3527;52.376;8.990;2022-07-29T16:44:03;4.93;;;3.22;;
6973;SDS011;3527;52.376;8.990;2022-07-29T16:46:50;8.40;;;3.70;;
6973;SDS011;3527;52.376;8.990;2022-07-29T16:49:41;5.95;;;3.55;;
6973;SDS011;3527;52.376;8.990;2022-07-29T16:52:28;8.73;;;3.17;;
6973;SDS011;3527;52.376;8.990;2022-07-29T16:55:15;9.90;;;3.17;;
6973;SDS011;3527;52.376;8.990;2022-07-29T16:58:02;7.13;;;3.03;;
6973;SDS011;3527;52.376;8.990;2022-07-29T17:00:50;10.07;;;3.20;;
6973;SDS011;3527;52.376;8.990;2022-07-29T17:03:38;10.23;;;3.20;;
6973;SDS011;3527;52.376;8.990;2022-07-29T17:06:47;6.57;;;3.20;;
6973;SDS011;3527;52.376;8.990;2022-07-29T17:09:36;12.00;;;3.97;;
6973;SDS011;3527;52.376;8.990;2022-07-29T17:12:23;6.15;;;3.38;;
6973;SDS011;3527;52.376;8.990;2022-07-29T17:15:11;5.82;;;3.28;;
6973;SDS011;3527;52.376;8.990;2022-07-29T17:17:58;6.20;;;3.10;;
6973;SDS011;3527;52.376;8.990;2022-07-29T17:20:58;7.32;;;3.40;;
6973;SDS011;3527;52.376;8.990;2022-07-29T17:23:45;10.00;;;3.60;;
6973;SDS011;3527;52.376;8.990;2022-07-29T17:26:33;7.27;;;3.97;;
6973;SDS011;3527;52.376;8.990;2022-07-29T17:29:20;11.83;;;5.43;;
6973;SDS011;3527;52.376;8.990;2022-07-29T17:32:07;8.73;;;5.40;;
6973;SDS011;3527;52.376;8.990;2022-07-29T17:34:55;9.37;;;5.30;;
6973;SDS011;3527;52.376;8.990;2022-07-29T17:37:42;15.53;;;5.57;;
6973;SDS011;3527;52.376;8.990;2022-07-29T17:40:29;11.83;;;6.23;;
6973;SDS011;3527;52.376;8.990;2022-07-29T17:43:16;15.13;;;6.37;;
6973;SDS011;3527;52.376;8.990;2022-07-29T17:46:03;14.90;;;7.10;;
6973;SDS011;3527;52.376;8.990;2022-07-29T17:48:53;9.80;;;6.33;;
6973;SDS011;3527;52.376;8.990;2022-07-29T17:51:41;9.67;;;6.37;;
6973;SDS011;3527;52.376;8.990;2022-07-29T17:54:28;8.97;;;6.37;;
6973;SDS011;3527;52.376;8.990;2022-07-29T17:57:15;10.57;;;6.33;;
6973;SDS011;3527;52.376;8.990;2022-07-29T18:00:04;11.70;;;6.53;;
6973;SDS011;3527;52.376;8.990;2022-07-29T18:02:53;10.80;;;6.40;;
6973;SDS011;3527;52.376;8.990;2022-07-29T18:05:41;11.20;;;6.37;;
6973;SDS011;3527;52.376;8.990;2022-07-29T18:08:30;9.30;;;7.20;;
6973;SDS011;3527;52.376;8.990;2022-07-29T18:11:17;11.90;;;7.23;;
6973;SDS011;3527;52.376;8.990;2022-07-29T18:14:04;13.10;;;7.57;;